South Hadley, MA (01075)

1:48 AM EDT on April 01, 2015 (GMT -0400)
South Hadley | | Change Station
CLOSE
Current Station
Personal Weather Station
Location: South Hadley, MA
Elevation: 223 ft
Nearby Weather Stations

Elev 223 ft 42.24 °N, 72.59 °W | Updated 9 minutes ago

Clear
Clear
27.9 °F
Feels Like 28 °F
N
0.0
Wind Variable Wind from NNE

Today
High -- | Low -- °F
--% Chance of Precip.
Yesterday
High -- | Low -- °F
Precip. -- in
6:33 AM 7:15 PM
Waxing Gibbous, 91% visible
Pressure 29.79 in
Visibility 10.0 miles
Clouds Clear
Windchill 28 °F
Dew Point 24 °F
Humidity 86%
Rainfall 0.00 in
Snow Depth Not available.
UV 0 out of 12
Pollen 8.00 out of 12
Air Quality Not available.
Flu Activity Not available.
METAR KCEF 010458Z AUTO 36005KT 10SM CLR M04/M05 A2979 RMK AO2 SLPNO T10401049 400991044

More Conditions Fewer Conditions

Pressure 29.79 in
Visibility 10.0 miles
Clouds Clear
Windchill 28 °F
Dew Point 24 °F
Humidity 86%
Rainfall 0.00 in
Snow Depth Not available.
UV 0 out of 12
Pollen 8.00 out of 12
Air Quality Not available.
Flu Activity Not available.
METAR KCEF 010458Z AUTO 36005KT 10SM CLR M04/M05 A2979 RMK AO2 SLPNO T10401049 400991044

More Conditions Fewer Conditions

10-Day Weather Forecast

Almanac

Astronomy

Apr. 01, 2015 Rise Set
Actual Time
Civil Twilight
Nautical Twilight
Astronomical Twilight
Moon
Length of Visible Light
Length of Day
Tomorrow will be .
, % of the Moon is Illuminated

Today's Extremes

State Highs State Lows

Community

WunderPhotos

Upload Photos

1,809,919 photos uploaded!

WunderBlogs® & News

Nearby

Air Quality

  Air Quality AQ Index Pollutant
Not available.

Snow Depth

Station Depth Elevation

Earthquake Activity

City Distance Mag. Time & Date
Minimum magnitude displayed is 2.5.

Coastal Water Temperatures

Place Temperature

Stations

Nearby Weather Stations

Station Location Temp. Windchill Dew Point Humidity Wind Precip. Elev Updated Type